Pallada — UDUI — position and weather

sailwx.info

Track history (hours):
 
Tides and Currents Weather Stations Pressure Air Temp Water Temp Dewpoint Dewpoint Depression Visibility Wind Speed Wind Dir Waves Ship Positions

Pallada

Last reported at 2020-Mar-19 14:31 UTC. Time now 2020-Mar-31 06:04 UTC.
Position S 33°54' E 018°26'.
Warning: this ship's position is 11 days out of date.

Length 109 m; draft 7.2 m.

Type: Sailing vessel. MMSI: 273815200.

Date/timePositionNaut miles runAvg speedWind from/ knotsBaromVisibWave heightAir tempDewpointWater temp
2020-Mar-19 14:31S 33°54' E 018°26'2 3.1
2020-Mar-19 14:00S 33°55' E 018°27'0 0.0
2020-Mar-19 13:30S 33°55' E 018°27'0 0.0
2020-Mar-19 10:00S 33°55' E 018°27'0 0.0
2020-Mar-19 09:30S 33°55' E 018°27'0 0.0
2020-Mar-19 08:30S 33°55' E 018°27'2 0.8
2020-Mar-19 06:28S 33°54' E 018°25'0 0.0
2020-Mar-19 05:28S 33°54' E 018°25'0 0.0
2020-Mar-19 04:58S 33°54' E 018°25'0 0.0
2020-Mar-19 04:28S 33°54' E 018°25'0 0.0
2020-Mar-19 03:28S 33°54' E 018°25'0 0.0
2020-Mar-19 02:28S 33°54' E 018°25'0 0.0
2020-Mar-19 00:58S 33°54' E 018°25'0 0.0
2020-Mar-18 23:58S 33°54' E 018°25'0 0.0
2020-Mar-18 19:58S 33°54' E 018°25'0 0.0
2020-Mar-18 18:28S 33°54' E 018°25'0 0.0
2020-Mar-18 13:28S 33°54' E 018°25'0 0.0
2020-Mar-18 12:28S 33°54' E 018°25'0 0.0
2020-Mar-18 11:58S 33°54' E 018°25'0 0.0
2020-Mar-18 09:58S 33°54' E 018°25'0 0.0
2020-Mar-18 09:28S 33°54' E 018°25'0 0.0
2020-Mar-18 08:58S 33°54' E 018°25'0 0.0
2020-Mar-18 08:28S 33°54' E 018°25'0 0.0
2020-Mar-18 03:28S 33°54' E 018°25'0 0.0
2020-Mar-18 02:28S 33°54' E 018°25'0 0.0
2020-Mar-18 01:58S 33°54' E 018°25'0 0.0
2020-Mar-18 00:58S 33°54' E 018°25'0 0.0
2020-Mar-17 20:28S 33°54' E 018°25'0 0.0
2020-Mar-17 17:58S 33°54' E 018°25'0 0.0
2020-Mar-17 16:28S 33°54' E 018°25'0 0.0
2020-Mar-17 12:58S 33°54' E 018°25'0 0.0
2020-Mar-17 10:28S 33°54' E 018°25'0 0.0
2020-Mar-17 09:28S 33°54' E 018°25'0 0.0
2020-Mar-17 06:31S 33°54' E 018°25'0 0.0
2020-Mar-17 06:01S 33°54' E 018°25'1 0.3
2020-Mar-17 03:30S 33°55' E 018°26'0 0.0
2020-Mar-17 01:00S 33°55' E 018°26'0 0.0
2020-Mar-16 23:00S 33°55' E 018°26'0 0.0
2020-Mar-16 21:30S 33°55' E 018°26'0 0.0
2020-Mar-16 19:27S 33°55' E 018°26'0 0.0
2020-Mar-16 17:30S 33°55' E 018°26'0 0.0
2020-Mar-16 15:00S 33°55' E 018°26'0 0.0
2020-Mar-16 14:30S 33°55' E 018°26'0 0.0
2020-Mar-16 11:57S 33°55' E 018°26'2 0.4
2020-Mar-16 07:00S 33°52' E 018°27'1 2.7
2020-Mar-16 06:30S 33°52' E 018°25'2 4.0
2020-Mar-16 06:00S 33°52' E 018°23'1 2.6
2020-Mar-16 05:30S 33°52' E 018°21'4 2.1
2020-Mar-16 03:29S 33°50' E 018°17'17 1.0
2020-Mar-15 10:47S 33°36' E 018°05'2 0.9
2020-Mar-15 08:40S 33°37' E 018°07'15 2.8
2020-Mar-15 03:30S 33°48' E 018°18'5 5.3
2020-Mar-15 02:30S 33°51' E 018°23'3 1.8
2020-Mar-15 01:00S 33°52' E 018°26'  
Track history (hours):
 
Tides and Currents Weather Stations Pressure Air Temp Water Temp Dewpoint Dewpoint Depression Visibility Wind Speed Wind Dir Waves Ship Positions

Pallada

Last reported at 2020-Mar-19 14:31 UTC. Time now 2020-Mar-31 06:04 UTC.
Position S 33°54' E 018°26'.
Warning: this ship's position is 11 days out of date.

Length 109 m; draft 7.2 m.

Type: Sailing vessel. MMSI: 273815200.

Date/timePositionNaut miles runAvg speedWind from/ knotsBaromVisibWave heightAir tempDewpointWater temp
2020-Mar-19 14:31S 33°54' E 018°26'2 3.1
2020-Mar-19 14:00S 33°55' E 018°27'0 0.0
2020-Mar-19 13:30S 33°55' E 018°27'0 0.0
2020-Mar-19 10:00S 33°55' E 018°27'0 0.0
2020-Mar-19 09:30S 33°55' E 018°27'0 0.0
2020-Mar-19 08:30S 33°55' E 018°27'2 0.8
2020-Mar-19 06:28S 33°54' E 018°25'0 0.0
2020-Mar-19 05:28S 33°54' E 018°25'0 0.0
2020-Mar-19 04:58S 33°54' E 018°25'0 0.0
2020-Mar-19 04:28S 33°54' E 018°25'0 0.0
2020-Mar-19 03:28S 33°54' E 018°25'0 0.0
2020-Mar-19 02:28S 33°54' E 018°25'0 0.0
2020-Mar-19 00:58S 33°54' E 018°25'0 0.0
2020-Mar-18 23:58S 33°54' E 018°25'0 0.0
2020-Mar-18 19:58S 33°54' E 018°25'0 0.0
2020-Mar-18 18:28S 33°54' E 018°25'0 0.0
2020-Mar-18 13:28S 33°54' E 018°25'0 0.0
2020-Mar-18 12:28S 33°54' E 018°25'0 0.0
2020-Mar-18 11:58S 33°54' E 018°25'0 0.0
2020-Mar-18 09:58S 33°54' E 018°25'0 0.0
2020-Mar-18 09:28S 33°54' E 018°25'0 0.0
2020-Mar-18 08:58S 33°54' E 018°25'0 0.0
2020-Mar-18 08:28S 33°54' E 018°25'0 0.0
2020-Mar-18 03:28S 33°54' E 018°25'0 0.0
2020-Mar-18 02:28S 33°54' E 018°25'0 0.0
2020-Mar-18 01:58S 33°54' E 018°25'0 0.0
2020-Mar-18 00:58S 33°54' E 018°25'0 0.0
2020-Mar-17 20:28S 33°54' E 018°25'0 0.0
2020-Mar-17 17:58S 33°54' E 018°25'0 0.0
2020-Mar-17 16:28S 33°54' E 018°25'0 0.0
2020-Mar-17 12:58S 33°54' E 018°25'0 0.0
2020-Mar-17 10:28S 33°54' E 018°25'0 0.0
2020-Mar-17 09:28S 33°54' E 018°25'0 0.0
2020-Mar-17 06:31S 33°54' E 018°25'0 0.0
2020-Mar-17 06:01S 33°54' E 018°25'1 0.3
2020-Mar-17 03:30S 33°55' E 018°26'0 0.0
2020-Mar-17 01:00S 33°55' E 018°26'0 0.0
2020-Mar-16 23:00S 33°55' E 018°26'0 0.0
2020-Mar-16 21:30S 33°55' E 018°26'0 0.0
2020-Mar-16 19:27S 33°55' E 018°26'0 0.0
2020-Mar-16 17:30S 33°55' E 018°26'0 0.0
2020-Mar-16 15:00S 33°55' E 018°26'0 0.0
2020-Mar-16 14:30S 33°55' E 018°26'0 0.0
2020-Mar-16 11:57S 33°55' E 018°26'2 0.4
2020-Mar-16 07:00S 33°52' E 018°27'1 2.7
2020-Mar-16 06:30S 33°52' E 018°25'2 4.0
2020-Mar-16 06:00S 33°52' E 018°23'1 2.6
2020-Mar-16 05:30S 33°52' E 018°21'4 2.1
2020-Mar-16 03:29S 33°50' E 018°17'17 1.0
2020-Mar-15 10:47S 33°36' E 018°05'2 0.9
2020-Mar-15 08:40S 33°37' E 018°07'15 2.8
2020-Mar-15 03:30S 33°48' E 018°18'5 5.3
2020-Mar-15 02:30S 33°51' E 018°23'3 1.8
2020-Mar-15 01:00S 33°52' E 018°26'  

Dump ship's entire track history